createdAt,value
2019-01-02T00:00:33.907Z,101776.34
2019-01-02T00:03:05.382Z,101777.31
2019-01-02T00:05:37.257Z,101782.00
2019-01-02T00:08:08.713Z,101782.48
2019-01-02T00:10:40.317Z,101790.02
2019-01-02T00:13:11.735Z,101794.03
2019-01-02T00:15:43.047Z,101799.52
2019-01-02T00:18:14.397Z,101803.30
2019-01-02T00:20:45.790Z,101794.69
2019-01-02T00:23:17.458Z,101797.22
2019-01-02T00:25:48.807Z,101793.29
2019-01-02T00:28:20.515Z,101811.31
2019-01-02T00:30:51.831Z,101798.45
2019-01-02T00:33:23.192Z,101807.63
2019-01-02T00:35:54.975Z,101790.11
2019-01-02T00:38:26.212Z,101790.27
2019-01-02T00:40:58.013Z,101790.35
2019-01-02T00:43:30.968Z,101784.86
2019-01-02T00:46:02.835Z,101782.08
2019-01-02T00:48:34.108Z,101783.39
2019-01-02T00:51:05.401Z,101787.16
2019-01-02T00:53:36.897Z,101785.60
2019-01-02T00:56:08.295Z,101785.52
2019-01-02T00:58:39.626Z,101776.09
2019-01-02T01:01:12.016Z,101776.59
2019-01-02T01:03:44.905Z,101784.04
2019-01-02T01:06:17.547Z,101790.34
2019-01-02T01:08:48.870Z,101786.33
2019-01-02T01:11:20.283Z,101776.41
2019-01-02T01:13:51.598Z,101771.75
2019-01-02T01:16:23.059Z,101779.61
2019-01-02T01:18:54.695Z,101765.60
2019-01-02T01:21:26.164Z,101777.89
2019-01-02T01:23:58.650Z,101780.92
2019-01-02T01:26:30.036Z,101781.41
2019-01-02T01:29:01.461Z,101783.54
2019-01-02T01:31:33.177Z,101790.25
2019-01-02T01:34:04.687Z,101790.84
2019-01-02T01:36:36.326Z,101786.48
2019-01-02T01:39:10.105Z,101794.43
2019-01-02T01:41:41.509Z,101805.17
2019-01-02T01:44:12.949Z,101804.36
2019-01-02T01:46:44.370Z,101811.81
2019-01-02T01:49:15.734Z,101814.19
2019-01-02T01:51:47.389Z,101814.02
2019-01-02T01:54:19.650Z,101822.78
2019-01-02T01:56:51.022Z,101831.33
2019-01-02T01:59:23.107Z,101823.55
2019-01-02T02:01:54.554Z,101841.56
2019-01-02T02:04:25.917Z,101852.97
2019-01-02T02:06:57.775Z,101857.78
2019-01-02T02:09:29.133Z,101855.48
2019-01-02T02:12:00.518Z,101862.69
2019-01-02T02:14:32.303Z,101863.33
2019-01-02T02:17:03.653Z,101866.75
2019-01-02T02:19:35.236Z,101877.94
2019-01-02T02:22:06.551Z,101887.64
2019-01-02T02:24:37.873Z,101861.48
2019-01-02T02:27:09.435Z,101861.14
2019-01-02T02:29:40.688Z,101860.60
2019-01-02T02:32:12.065Z,101861.23
2019-01-02T02:34:43.412Z,101862.73
2019-01-02T02:37:14.714Z,101863.36
2019-01-02T02:39:46.044Z,101865.41
2019-01-02T02:42:17.893Z,101880.38
2019-01-02T02:44:49.726Z,101878.05
2019-01-02T02:47:21.420Z,101877.65
2019-01-02T02:49:53.127Z,101873.97
2019-01-02T02:52:24.635Z,101869.02
2019-01-02T02:54:55.919Z,101877.94
2019-01-02T02:57:27.274Z,101867.05
2019-01-02T02:59:58.743Z,101862.44
2019-01-02T03:02:30.267Z,101859.61
2019-01-02T03:05:01.516Z,101861.77
2019-01-02T03:07:33.439Z,101860.58
2019-01-02T03:10:08.671Z,101862.90
2019-01-02T03:12:40.264Z,101870.00
2019-01-02T03:15:16.340Z,101873.84
2019-01-02T03:17:47.930Z,101872.12
2019-01-02T03:20:19.605Z,101865.16
2019-01-02T03:22:51.201Z,101870.54
2019-01-02T03:25:23.055Z,101856.80
2019-01-02T03:27:55.131Z,101861.97
2019-01-02T03:30:28.532Z,101873.07
2019-01-02T03:33:00.815Z,101855.92
2019-01-02T03:35:55.316Z,101856.34
2019-01-02T03:38:41.962Z,101860.75
2019-01-02T03:41:19.146Z,101863.46
2019-01-02T03:44:19.141Z,101866.44
2019-01-02T03:47:02.371Z,101868.19
2019-01-02T03:49:35.725Z,101872.89
2019-01-02T03:52:09.172Z,101871.72
2019-01-02T03:54:42.539Z,101873.34
2019-01-02T03:57:15.907Z,101871.98
2019-01-02T03:59:49.229Z,101880.38
2019-01-02T04:02:21.004Z,101872.56
2019-01-02T04:04:54.573Z,101874.55
2019-01-02T04:07:48.116Z,101865.14
2019-01-02T04:11:01.092Z,101880.45
2019-01-02T04:13:01.292Z,101886.05
2019-01-02T04:15:34.044Z,101880.52
2019-01-02T04:18:05.791Z,101873.67
2019-01-02T04:20:37.462Z,101872.16
2019-01-02T04:23:09.013Z,101872.26
2019-01-02T04:25:40.671Z,101860.25
2019-01-02T04:28:13.941Z,101852.99
2019-01-02T04:30:47.092Z,101858.63
2019-01-02T04:34:11.585Z,101851.72
2019-01-02T04:37:52.153Z,101860.00
2019-01-02T04:40:23.780Z,101855.65
2019-01-02T04:42:56.743Z,101862.81
2019-01-02T04:45:28.299Z,101861.39
2019-01-02T04:47:59.701Z,101859.77
2019-01-02T04:50:31.045Z,101864.38
2019-01-02T04:53:02.484Z,101858.88
2019-01-02T04:55:33.829Z,101862.58
2019-01-02T04:58:05.207Z,101883.09
2019-01-02T05:00:36.559Z,101891.66
2019-01-02T05:03:08.063Z,101899.98
2019-01-02T05:05:39.476Z,101895.55
2019-01-02T05:08:10.851Z,101889.91
2019-01-02T05:10:42.134Z,101895.41
2019-01-02T05:13:13.734Z,101894.53
2019-01-02T05:15:45.018Z,101897.47
2019-01-02T05:18:16.343Z,101891.91
2019-01-02T05:20:47.737Z,101904.37
2019-01-02T05:23:21.113Z,101893.01
2019-01-02T05:25:52.425Z,101875.27
2019-01-02T05:28:23.893Z,101883.59
2019-01-02T05:30:55.248Z,101882.05
2019-01-02T05:33:26.823Z,101881.08
2019-01-02T05:35:58.087Z,101884.66
2019-01-02T05:38:29.436Z,101891.09
2019-01-02T05:41:00.799Z,101881.16
2019-01-02T05:43:32.318Z,101888.60
2019-01-02T05:46:03.731Z,101873.04
2019-01-02T05:48:35.205Z,101879.95
2019-01-02T05:51:06.581Z,101877.95
2019-01-02T05:53:38.011Z,101861.22
2019-01-02T05:56:09.377Z,101854.77
2019-01-02T05:58:40.875Z,101864.65
2019-01-02T06:01:12.138Z,101863.75
2019-01-02T06:03:43.466Z,101871.64
2019-01-02T06:06:14.797Z,101871.33
2019-01-02T06:08:46.176Z,101875.56
2019-01-02T06:11:17.568Z,101869.03
2019-01-02T06:13:49.013Z,101877.46
2019-01-02T06:16:20.415Z,101873.13
2019-01-02T06:18:51.919Z,101877.59
2019-01-02T06:21:23.194Z,101872.27
2019-01-02T06:23:56.198Z,101883.02
2019-01-02T06:26:27.556Z,101878.09
2019-01-02T06:28:59.067Z,101883.23
2019-01-02T06:31:30.573Z,101883.91
2019-01-02T06:34:02.043Z,101889.47
2019-01-02T06:36:33.354Z,101908.87
2019-01-02T06:39:06.631Z,101897.13
2019-01-02T06:41:37.994Z,101898.84
2019-01-02T06:44:09.497Z,101905.30
2019-01-02T06:46:40.955Z,101907.59
2019-01-02T06:49:12.304Z,101907.47
2019-01-02T06:51:43.762Z,101909.09
2019-01-02T06:54:15.136Z,101898.72
2019-01-02T06:56:46.494Z,101911.34
2019-01-02T06:59:17.989Z,101914.05
2019-01-02T07:01:49.254Z,101918.61
2019-01-02T07:04:20.600Z,101920.14
2019-01-02T07:06:53.531Z,101915.22
2019-01-02T07:09:24.942Z,101922.17
2019-01-02T07:11:56.227Z,101921.00
2019-01-02T07:14:27.693Z,101929.39
2019-01-02T07:16:59.135Z,101935.08
2019-01-02T07:19:33.075Z,101932.42
2019-01-02T07:22:04.649Z,101933.05
2019-01-02T07:24:36.080Z,101927.95
2019-01-02T07:27:07.425Z,101919.69
2019-01-02T07:29:38.797Z,101924.25
2019-01-02T07:32:10.204Z,101933.63
2019-01-02T07:35:12.055Z,101941.48
2019-01-02T07:38:08.713Z,101932.42
2019-01-02T07:40:56.014Z,101934.85
2019-01-02T07:43:37.774Z,101940.14
2019-01-02T07:46:38.076Z,101931.42
2019-01-02T07:49:56.439Z,101937.30
2019-01-02T07:52:41.152Z,101936.16
2019-01-02T07:55:36.118Z,101946.72
2019-01-02T07:58:32.884Z,101943.30
2019-01-02T08:01:32.647Z,101959.41
2019-01-02T08:04:28.196Z,101955.87
2019-01-02T08:07:37.829Z,101957.97
2019-01-02T08:10:36.580Z,101966.09
2019-01-02T08:13:24.468Z,101955.13
2019-01-02T08:16:15.716Z,101967.31
2019-01-02T08:18:58.844Z,101975.52
2019-01-02T08:22:21.717Z,101980.04
2019-01-02T08:25:24.827Z,101980.91
2019-01-02T08:28:24.301Z,101988.12
2019-01-02T08:31:18.332Z,101989.39
2019-01-02T08:34:18.629Z,101974.27
2019-01-02T08:37:23.318Z,101988.80
2019-01-02T08:40:20.179Z,101995.30
2019-01-02T08:43:05.042Z,102000.14
2019-01-02T08:45:59.122Z,102001.47
2019-01-02T08:48:43.692Z,102002.52
2019-01-02T08:51:47.074Z,102005.19
2019-01-02T08:54:53.445Z,102005.20
2019-01-02T08:57:46.124Z,102009.38
2019-01-02T09:00:55.121Z,102017.52
2019-01-02T09:04:04.383Z,102020.05
2019-01-02T09:06:58.388Z,102011.59
2019-01-02T09:09:55.437Z,102020.63
2019-01-02T09:12:58.608Z,102032.46
2019-01-02T09:15:55.718Z,102030.89
2019-01-02T09:18:45.951Z,102030.57
2019-01-02T09:21:51.941Z,102029.46
2019-01-02T09:24:47.607Z,102032.34
2019-01-02T09:27:29.554Z,102035.98
2019-01-02T09:30:27.519Z,102026.72
2019-01-02T09:33:26.512Z,102027.80
2019-01-02T09:36:37.181Z,102027.97
2019-01-02T09:39:15.769Z,102024.25
2019-01-02T09:42:10.539Z,102032.77
2019-01-02T09:44:59.625Z,102030.97
2019-01-02T09:47:53.742Z,102043.67
2019-01-02T09:50:35.518Z,102036.60
2019-01-02T09:53:17.436Z,102043.92
2019-01-02T09:56:16.118Z,102041.66
2019-01-02T09:59:05.234Z,102046.22
2019-01-02T10:01:44.605Z,102054.34
2019-01-02T10:04:36.061Z,102038.98
2019-01-02T10:07:43.867Z,102036.41
2019-01-02T10:10:25.696Z,102039.16
2019-01-02T10:13:25.759Z,102045.27
2019-01-02T10:16:43.104Z,102049.14
2019-01-02T10:19:45.125Z,102039.66
2019-01-02T10:22:40.287Z,102032.86
2019-01-02T10:25:35.844Z,102030.98
2019-01-02T10:28:11.918Z,102031.31
2019-01-02T10:31:07.319Z,102037.47
2019-01-02T10:33:46.109Z,102029.59
2019-01-02T10:36:53.159Z,102036.08
2019-01-02T10:39:59.056Z,102025.83
2019-01-02T10:42:46.816Z,102023.97
2019-01-02T10:45:50.416Z,102033.05
2019-01-02T10:48:41.232Z,102030.56
2019-01-02T10:51:39.973Z,102027.78
2019-01-02T10:54:48.033Z,102025.81
2019-01-02T10:57:52.431Z,102023.45
2019-01-02T11:00:31.044Z,102021.91
2019-01-02T11:03:12.451Z,102023.55
2019-01-02T11:06:08.219Z,102013.95
2019-01-02T11:09:08.286Z,102028.07
2019-01-02T11:11:56.593Z,102048.14
2019-01-02T11:14:41.122Z,102041.33
2019-01-02T11:17:26.116Z,102046.87
2019-01-02T11:20:22.095Z,102030.86
2019-01-02T11:23:17.737Z,102046.18
2019-01-02T11:26:17.293Z,102032.31
2019-01-02T11:29:07.951Z,102031.33
2019-01-02T11:32:18.903Z,102036.09
2019-01-02T11:35:19.345Z,102042.19
2019-01-02T11:38:14.802Z,102038.02
2019-01-02T11:41:05.621Z,102041.12
2019-01-02T11:44:27.286Z,102044.67
2019-01-02T11:46:58.638Z,102022.12
2019-01-02T11:49:29.994Z,102028.86
2019-01-02T11:52:01.451Z,102026.23
2019-01-02T11:54:33.067Z,102032.63
2019-01-02T11:57:04.509Z,102029.63
2019-01-02T11:59:35.940Z,102023.72
2019-01-02T12:02:07.470Z,102022.33
2019-01-02T12:04:38.869Z,102032.63
2019-01-02T12:07:11.502Z,102032.14
2019-01-02T12:09:42.986Z,102024.10
2019-01-02T12:12:15.528Z,102015.98
2019-01-02T12:14:46.881Z,102016.08
2019-01-02T12:17:18.313Z,102021.16
2019-01-02T12:19:49.740Z,102025.72
2019-01-02T12:22:21.181Z,102022.15
2019-01-02T12:24:52.653Z,102019.53
2019-01-02T12:27:24.378Z,102017.07
2019-01-02T12:29:55.924Z,102013.98
2019-01-02T12:32:27.276Z,102017.85
2019-01-02T12:34:58.676Z,102022.17
2019-01-02T12:37:30.176Z,102020.30
2019-01-02T12:40:01.539Z,102018.34
2019-01-02T12:42:32.950Z,102017.07
2019-01-02T12:45:05.657Z,102008.36
2019-01-02T12:47:37.118Z,102010.22
2019-01-02T12:50:09.571Z,102019.20
2019-01-02T12:52:41.169Z,102009.54
2019-01-02T12:55:13.777Z,102014.50
2019-01-02T12:57:45.403Z,102026.67
2019-01-02T13:00:16.754Z,102024.43
2019-01-02T13:03:33.959Z,102025.83
2019-01-02T13:06:22.136Z,102029.67
2019-01-02T13:09:31.805Z,102027.20
2019-01-02T13:12:19.534Z,102032.22
2019-01-02T13:15:14.924Z,102029.59
2019-01-02T13:18:12.081Z,102033.70
2019-01-02T13:20:48.117Z,102037.88
2019-01-02T13:23:38.734Z,102044.84
2019-01-02T13:26:20.749Z,102045.01
2019-01-02T13:29:08.687Z,102038.11
2019-01-02T13:32:01.516Z,102043.75
2019-01-02T13:35:22.796Z,102052.88
2019-01-02T13:38:17.120Z,102052.97
2019-01-02T13:41:16.793Z,102074.37
2019-01-02T13:43:58.619Z,102068.78
2019-01-02T13:46:52.640Z,102073.52
2019-01-02T13:49:57.382Z,102067.78
2019-01-02T13:52:33.603Z,102082.02
2019-01-02T13:55:21.622Z,102085.16
2019-01-02T13:57:59.159Z,102089.56
2019-01-02T14:00:38.150Z,102087.48
2019-01-02T14:03:34.496Z,102083.80
2019-01-02T14:06:17.410Z,102085.98
2019-01-02T14:08:52.609Z,102084.64
2019-01-02T14:11:42.823Z,102093.03
2019-01-02T14:14:28.996Z,102096.47
2019-01-02T14:17:15.696Z,102101.61
2019-01-02T14:19:55.492Z,102101.73
2019-01-02T14:22:40.533Z,102102.34
2019-01-02T14:25:32.597Z,102112.62
2019-01-02T14:28:15.451Z,102109.09
2019-01-02T14:30:54.109Z,102110.38
2019-01-02T14:33:25.879Z,102116.70
2019-01-02T14:36:22.992Z,102116.09
2019-01-02T14:46:51.474Z,102114.84
2019-01-02T14:49:45.546Z,102124.40
2019-01-02T14:52:11.126Z,102123.03
2019-01-02T14:54:54.126Z,102133.20
2019-01-02T14:57:30.453Z,102135.77
2019-01-02T15:00:03.754Z,102141.81
2019-01-02T15:02:39.040Z,102138.20
2019-01-02T15:05:20.741Z,102148.25
2019-01-02T15:07:56.552Z,102154.39
2019-01-02T15:10:44.095Z,102149.79
2019-01-02T15:13:20.598Z,102160.23
2019-01-02T15:15:52.894Z,102152.70
2019-01-02T15:18:26.439Z,102154.25
2019-01-02T15:20:59.896Z,102153.05
2019-01-02T15:23:41.400Z,102156.50
2019-01-02T15:26:23.555Z,102161.89
2019-01-02T15:28:55.362Z,102154.92
2019-01-02T15:31:31.211Z,102157.59
2019-01-02T15:34:02.966Z,102162.16
2019-01-02T15:36:36.415Z,102160.55
2019-01-02T15:39:08.726Z,102163.13
2019-01-02T15:41:41.987Z,102175.64
2019-01-02T15:44:13.970Z,102174.72
2019-01-02T15:46:47.162Z,102172.33
2019-01-02T15:49:21.970Z,102179.97
2019-01-02T15:51:53.694Z,102184.56
2019-01-02T15:54:41.622Z,102191.23
2019-01-02T15:57:15.829Z,102186.03
2019-01-02T15:59:49.222Z,102197.56
2019-01-02T16:02:44.426Z,102197.32
2019-01-02T16:05:47.838Z,102197.21
2019-01-02T16:08:17.533Z,102200.05
2019-01-02T16:11:03.346Z,102205.50
2019-01-02T16:13:35.734Z,102213.02
2019-01-02T16:16:18.164Z,102214.88
2019-01-02T16:18:54.932Z,102210.78
2019-01-02T16:21:26.778Z,102218.23
2019-01-02T16:24:09.036Z,102219.39
2019-01-02T16:26:52.696Z,102223.41
2019-01-02T16:29:31.047Z,102223.42
2019-01-02T16:32:13.800Z,102236.42
2019-01-02T16:34:47.238Z,102238.36
2019-01-02T16:37:18.919Z,102243.98
2019-01-02T16:39:50.660Z,102252.47
2019-01-02T16:42:22.650Z,102252.00
2019-01-02T16:44:57.829Z,102260.73
2019-01-02T16:47:32.254Z,102249.30
2019-01-02T16:50:04.814Z,102257.46
2019-01-02T16:53:08.167Z,102259.08
2019-01-02T16:55:12.974Z,102255.76
2019-01-02T16:57:47.869Z,102263.63
2019-01-02T17:00:19.833Z,102265.64
2019-01-02T17:02:55.642Z,102270.84
2019-01-02T17:05:26.700Z,102270.52
2019-01-02T17:07:58.445Z,102275.89
2019-01-02T17:10:36.114Z,102281.21
2019-01-02T17:13:11.512Z,102280.50
2019-01-02T17:15:51.570Z,102278.63
2019-01-02T17:18:30.700Z,102281.84
2019-01-02T17:21:23.376Z,102285.11
2019-01-02T17:23:57.870Z,102289.03
2019-01-02T17:26:31.345Z,102293.25
2019-01-02T17:29:03.184Z,102290.35
2019-01-02T17:31:40.985Z,102298.83
2019-01-02T17:34:18.655Z,102294.20
2019-01-02T17:36:52.093Z,102297.74
2019-01-02T17:39:25.248Z,102293.32
2019-01-02T17:41:57.190Z,102294.01
2019-01-02T17:44:32.845Z,102293.20
2019-01-02T17:47:06.325Z,102294.44
2019-01-02T17:49:44.055Z,102300.23
2019-01-02T17:52:18.086Z,102305.77
2019-01-02T17:55:12.056Z,102308.67
2019-01-02T17:58:06.840Z,102315.95
2019-01-02T19:39:13.040Z,102393.34
2019-01-02T19:42:10.231Z,102394.91
2019-01-02T19:46:32.779Z,102404.09
2019-01-02T19:49:06.829Z,102409.99
2019-01-02T19:51:58.768Z,102404.98
2019-01-02T19:57:59.499Z,102410.06
2019-01-02T20:00:41.638Z,102410.78
2019-01-02T20:03:25.167Z,102411.92
2019-01-02T20:06:03.722Z,102420.55
2019-01-02T20:08:36.931Z,102409.31
2019-01-02T20:11:22.376Z,102413.47
2019-01-02T20:14:05.551Z,102415.16
2019-01-02T20:16:45.167Z,102415.58
2019-01-02T20:22:36.011Z,102414.55
2019-01-02T20:25:26.328Z,102412.84
2019-01-02T20:30:39.383Z,102421.05
2019-01-02T20:33:22.939Z,102414.88
2019-01-02T20:35:54.811Z,102415.84
2019-01-02T20:38:43.182Z,102418.52
2019-01-02T20:41:29.587Z,102416.86
2019-01-02T20:44:24.873Z,102415.17
2019-01-02T20:47:11.584Z,102410.05
2019-01-02T20:49:50.118Z,102411.24
2019-01-02T20:52:29.117Z,102413.72
2019-01-02T20:55:01.084Z,102412.09
2019-01-02T20:57:32.993Z,102415.42
2019-01-02T21:00:07.597Z,102407.66
2019-01-02T21:02:43.683Z,102399.99
2019-01-02T21:05:20.967Z,102403.22
2019-01-02T21:07:54.363Z,102404.82
2019-01-02T21:10:39.169Z,102400.16
2019-01-02T21:13:20.643Z,102403.16
2019-01-02T21:15:53.397Z,102401.73
2019-01-02T21:18:33.671Z,102400.88
2019-01-02T21:21:09.954Z,102406.16
2019-01-02T21:24:02.911Z,102405.23
2019-01-02T21:26:59.107Z,102403.42
2019-01-02T21:29:37.438Z,102412.05
2019-01-02T21:32:15.386Z,102413.08
2019-01-02T21:34:52.696Z,102418.35
2019-01-02T21:40:30.317Z,102408.94
2019-01-02T21:43:32.222Z,102412.84
2019-01-02T21:46:08.367Z,102415.28
2019-01-02T21:48:48.295Z,102411.88
2019-01-02T21:51:23.306Z,102412.96
2019-01-02T21:54:04.299Z,102411.40
2019-01-02T21:56:43.990Z,102412.77
2019-01-02T21:59:30.545Z,102415.06
2019-01-02T22:02:15.898Z,102411.88
2019-01-02T22:04:57.161Z,102414.33
2019-01-02T22:07:33.378Z,102414.53
2019-01-02T22:10:30.316Z,102422.33
2019-01-02T22:16:25.150Z,102428.38
2019-01-02T22:22:24.569Z,102434.24
2019-01-02T22:25:21.762Z,102440.55
2019-01-02T22:28:14.847Z,102440.55
2019-01-02T22:30:52.976Z,102434.24
2019-01-02T22:33:48.705Z,102443.66
2019-01-02T22:36:18.276Z,102437.65
2019-01-02T22:39:07.135Z,102447.79
2019-01-02T22:41:49.600Z,102444.11
2019-01-02T22:44:28.875Z,102442.47
2019-01-02T22:47:12.459Z,102450.63
2019-01-02T22:50:21.477Z,102446.50
2019-01-02T22:53:06.683Z,102445.88
2019-01-02T22:55:59.560Z,102451.38
2019-01-02T22:59:36.798Z,102456.38
2019-01-02T23:01:45.584Z,102456.95
2019-01-02T23:04:48.190Z,102459.98
2019-01-02T23:08:24.605Z,102463.08
2019-01-02T23:10:30.693Z,102464.89
2019-01-02T23:13:43.608Z,102469.16
2019-01-02T23:16:41.762Z,102478.08
2019-01-02T23:19:23.997Z,102478.60
2019-01-02T23:22:29.720Z,102477.34
2019-01-02T23:25:23.823Z,102485.36
2019-01-02T23:28:19.040Z,102482.39
2019-01-02T23:31:02.900Z,102487.55
2019-01-02T23:34:04.170Z,102496.41
2019-01-02T23:40:23.992Z,102502.03
2019-01-02T23:43:18.048Z,102514.28
2019-01-02T23:46:19.809Z,102512.30
2019-01-02T23:49:03.109Z,102514.17
2019-01-02T23:51:42.138Z,102525.07
2019-01-02T23:54:49.673Z,102523.93
2019-01-02T23:57:34.984Z,102524.36
